sensor_id;sensor_type;location;lat;lon;timestamp;P1;durP1;ratioP1;P2;durP2;ratioP2
14342;SDS011;7255;53.596;9.960;2023-03-29T00:02:25;4.97;;;4.23;;
14342;SDS011;7255;53.596;9.960;2023-03-29T00:04:55;7.20;;;4.70;;
14342;SDS011;7255;53.596;9.960;2023-03-29T00:07:21;7.93;;;4.00;;
14342;SDS011;7255;53.596;9.960;2023-03-29T00:09:49;9.83;;;4.47;;
14342;SDS011;7255;53.596;9.960;2023-03-29T00:12:16;5.90;;;4.23;;
14342;SDS011;7255;53.596;9.960;2023-03-29T00:14:42;6.80;;;4.60;;
14342;SDS011;7255;53.596;9.960;2023-03-29T00:17:10;8.40;;;4.53;;
14342;SDS011;7255;53.596;9.960;2023-03-29T00:19:36;4.93;;;4.00;;
14342;SDS011;7255;53.596;9.960;2023-03-29T00:22:02;8.40;;;4.30;;
14342;SDS011;7255;53.596;9.960;2023-03-29T00:24:30;6.87;;;4.00;;
14342;SDS011;7255;53.596;9.960;2023-03-29T00:26:57;6.60;;;4.57;;
14342;SDS011;7255;53.596;9.960;2023-03-29T00:29:23;6.50;;;4.03;;
14342;SDS011;7255;53.596;9.960;2023-03-29T00:31:49;5.23;;;4.30;;
14342;SDS011;7255;53.596;9.960;2023-03-29T00:34:19;6.67;;;4.20;;
14342;SDS011;7255;53.596;9.960;2023-03-29T00:36:45;6.37;;;4.60;;
14342;SDS011;7255;53.596;9.960;2023-03-29T00:39:14;6.03;;;4.77;;
14342;SDS011;7255;53.596;9.960;2023-03-29T00:41:42;5.30;;;4.60;;
14342;SDS011;7255;53.596;9.960;2023-03-29T00:47:09;7.13;;;4.83;;
14342;SDS011;7255;53.596;9.960;2023-03-29T00:49:36;6.70;;;4.50;;
14342;SDS011;7255;53.596;9.960;2023-03-29T00:52:03;7.20;;;4.60;;
14342;SDS011;7255;53.596;9.960;2023-03-29T00:54:30;5.30;;;4.20;;
14342;SDS011;7255;53.596;9.960;2023-03-29T00:56:58;4.87;;;4.03;;
14342;SDS011;7255;53.596;9.960;2023-03-29T00:59:27;7.03;;;4.90;;
14342;SDS011;7255;53.596;9.960;2023-03-29T01:01:56;7.67;;;4.40;;
14342;SDS011;7255;53.596;9.960;2023-03-29T01:04:27;7.90;;;4.50;;
14342;SDS011;7255;53.596;9.960;2023-03-29T01:06:59;6.27;;;4.43;;
14342;SDS011;7255;53.596;9.960;2023-03-29T01:09:31;8.33;;;5.13;;
14342;SDS011;7255;53.596;9.960;2023-03-29T01:12:02;6.87;;;4.57;;
14342;SDS011;7255;53.596;9.960;2023-03-29T01:14:37;9.63;;;4.97;;
14342;SDS011;7255;53.596;9.960;2023-03-29T01:17:07;11.73;;;4.53;;
14342;SDS011;7255;53.596;9.960;2023-03-29T01:19:36;6.80;;;4.13;;
14342;SDS011;7255;53.596;9.960;2023-03-29T01:22:10;5.80;;;4.27;;
14342;SDS011;7255;53.596;9.960;2023-03-29T01:24:52;7.90;;;4.53;;
14342;SDS011;7255;53.596;9.960;2023-03-29T01:27:46;6.63;;;4.30;;
14342;SDS011;7255;53.596;9.960;2023-03-29T01:30:20;7.13;;;4.60;;
14342;SDS011;7255;53.596;9.960;2023-03-29T01:32:53;7.03;;;4.20;;
14342;SDS011;7255;53.596;9.960;2023-03-29T01:35:24;6.40;;;4.27;;
14342;SDS011;7255;53.596;9.960;2023-03-29T01:37:57;4.30;;;3.90;;
14342;SDS011;7255;53.596;9.960;2023-03-29T01:40:27;5.60;;;4.07;;
14342;SDS011;7255;53.596;9.960;2023-03-29T01:42:57;9.97;;;4.20;;
14342;SDS011;7255;53.596;9.960;2023-03-29T01:45:32;5.40;;;4.00;;
14342;SDS011;7255;53.596;9.960;2023-03-29T01:48:02;5.03;;;4.10;;
14342;SDS011;7255;53.596;9.960;2023-03-29T01:50:36;8.40;;;4.43;;
14342;SDS011;7255;53.596;9.960;2023-03-29T01:53:08;5.60;;;4.30;;
14342;SDS011;7255;53.596;9.960;2023-03-29T01:55:41;5.63;;;4.07;;
14342;SDS011;7255;53.596;9.960;2023-03-29T01:58:14;5.57;;;4.10;;
14342;SDS011;7255;53.596;9.960;2023-03-29T02:00:43;6.83;;;4.50;;
14342;SDS011;7255;53.596;9.960;2023-03-29T02:03:10;10.97;;;4.70;;
14342;SDS011;7255;53.596;9.960;2023-03-29T02:05:41;6.70;;;4.40;;
14342;SDS011;7255;53.596;9.960;2023-03-29T02:08:09;6.13;;;4.23;;
14342;SDS011;7255;53.596;9.960;2023-03-29T02:10:38;4.33;;;3.93;;
14342;SDS011;7255;53.596;9.960;2023-03-29T02:13:05;4.90;;;4.33;;
14342;SDS011;7255;53.596;9.960;2023-03-29T02:15:32;6.03;;;4.13;;
14342;SDS011;7255;53.596;9.960;2023-03-29T02:17:59;8.50;;;3.90;;
14342;SDS011;7255;53.596;9.960;2023-03-29T02:20:26;7.57;;;4.17;;
14342;SDS011;7255;53.596;9.960;2023-03-29T02:22:56;5.27;;;4.37;;
14342;SDS011;7255;53.596;9.960;2023-03-29T02:25:28;5.43;;;3.70;;
14342;SDS011;7255;53.596;9.960;2023-03-29T02:27:56;6.07;;;4.23;;
14342;SDS011;7255;53.596;9.960;2023-03-29T02:30:23;6.20;;;4.37;;
14342;SDS011;7255;53.596;9.960;2023-03-29T02:32:54;7.13;;;3.90;;
14342;SDS011;7255;53.596;9.960;2023-03-29T02:35:26;7.37;;;4.40;;
14342;SDS011;7255;53.596;9.960;2023-03-29T02:37:59;5.33;;;3.73;;
14342;SDS011;7255;53.596;9.960;2023-03-29T02:40:28;4.40;;;4.00;;
14342;SDS011;7255;53.596;9.960;2023-03-29T02:42:56;6.87;;;4.17;;
14342;SDS011;7255;53.596;9.960;2023-03-29T02:45:24;7.77;;;4.27;;
14342;SDS011;7255;53.596;9.960;2023-03-29T02:47:54;6.80;;;4.17;;
14342;SDS011;7255;53.596;9.960;2023-03-29T02:50:23;5.60;;;4.07;;
14342;SDS011;7255;53.596;9.960;2023-03-29T02:52:53;5.87;;;3.80;;
14342;SDS011;7255;53.596;9.960;2023-03-29T02:55:25;8.17;;;4.10;;
14342;SDS011;7255;53.596;9.960;2023-03-29T02:57:58;9.77;;;4.80;;
14342;SDS011;7255;53.596;9.960;2023-03-29T03:00:27;8.50;;;4.47;;
14342;SDS011;7255;53.596;9.960;2023-03-29T03:02:55;8.70;;;4.20;;
14342;SDS011;7255;53.596;9.960;2023-03-29T03:05:21;7.30;;;4.60;;
14342;SDS011;7255;53.596;9.960;2023-03-29T03:07:48;6.57;;;4.00;;
14342;SDS011;7255;53.596;9.960;2023-03-29T03:10:15;6.33;;;4.00;;
14342;SDS011;7255;53.596;9.960;2023-03-29T03:12:43;5.00;;;4.13;;
14342;SDS011;7255;53.596;9.960;2023-03-29T03:15:09;10.40;;;4.57;;
14342;SDS011;7255;53.596;9.960;2023-03-29T03:17:36;5.43;;;3.60;;
14342;SDS011;7255;53.596;9.960;2023-03-29T03:20:06;9.50;;;4.53;;
14342;SDS011;7255;53.596;9.960;2023-03-29T03:22:37;7.70;;;4.17;;
14342;SDS011;7255;53.596;9.960;2023-03-29T03:25:04;13.90;;;4.77;;
14342;SDS011;7255;53.596;9.960;2023-03-29T03:27:34;4.53;;;3.77;;
14342;SDS011;7255;53.596;9.960;2023-03-29T03:30:01;8.63;;;4.43;;
14342;SDS011;7255;53.596;9.960;2023-03-29T03:32:29;5.40;;;3.93;;
14342;SDS011;7255;53.596;9.960;2023-03-29T03:34:55;5.97;;;3.90;;
14342;SDS011;7255;53.596;9.960;2023-03-29T03:37:24;5.87;;;4.13;;
14342;SDS011;7255;53.596;9.960;2023-03-29T03:39:51;6.27;;;3.93;;
14342;SDS011;7255;53.596;9.960;2023-03-29T03:42:17;7.40;;;4.07;;
14342;SDS011;7255;53.596;9.960;2023-03-29T03:44:44;6.13;;;4.30;;
14342;SDS011;7255;53.596;9.960;2023-03-29T03:47:10;5.10;;;3.70;;
14342;SDS011;7255;53.596;9.960;2023-03-29T03:49:38;6.80;;;3.73;;
14342;SDS011;7255;53.596;9.960;2023-03-29T03:52:04;8.50;;;4.10;;
14342;SDS011;7255;53.596;9.960;2023-03-29T03:54:33;5.53;;;4.03;;
14342;SDS011;7255;53.596;9.960;2023-03-29T03:56:59;12.53;;;6.87;;
14342;SDS011;7255;53.596;9.960;2023-03-29T03:59:26;8.63;;;5.20;;
14342;SDS011;7255;53.596;9.960;2023-03-29T04:01:52;7.50;;;4.23;;
14342;SDS011;7255;53.596;9.960;2023-03-29T04:04:19;7.60;;;4.27;;
14342;SDS011;7255;53.596;9.960;2023-03-29T04:06:46;8.27;;;3.90;;
14342;SDS011;7255;53.596;9.960;2023-03-29T04:09:12;4.40;;;4.00;;
14342;SDS011;7255;53.596;9.960;2023-03-29T04:11:40;5.13;;;4.33;;
14342;SDS011;7255;53.596;9.960;2023-03-29T04:14:06;6.70;;;4.20;;
14342;SDS011;7255;53.596;9.960;2023-03-29T04:16:33;6.27;;;4.30;;
14342;SDS011;7255;53.596;9.960;2023-03-29T04:18:59;5.47;;;4.93;;
14342;SDS011;7255;53.596;9.960;2023-03-29T04:21:25;7.37;;;4.20;;
14342;SDS011;7255;53.596;9.960;2023-03-29T04:23:52;8.93;;;5.43;;
14342;SDS011;7255;53.596;9.960;2023-03-29T04:26:18;5.90;;;4.60;;
14342;SDS011;7255;53.596;9.960;2023-03-29T04:28:46;5.27;;;4.50;;
14342;SDS011;7255;53.596;9.960;2023-03-29T04:31:13;6.10;;;4.67;;
14342;SDS011;7255;53.596;9.960;2023-03-29T04:33:39;15.70;;;6.07;;
14342;SDS011;7255;53.596;9.960;2023-03-29T04:36:07;8.07;;;5.30;;
14342;SDS011;7255;53.596;9.960;2023-03-29T04:38:33;9.77;;;5.43;;
14342;SDS011;7255;53.596;9.960;2023-03-29T04:41:02;10.13;;;5.90;;
14342;SDS011;7255;53.596;9.960;2023-03-29T04:43:29;8.13;;;6.10;;
14342;SDS011;7255;53.596;9.960;2023-03-29T04:45:57;7.57;;;5.17;;
14342;SDS011;7255;53.596;9.960;2023-03-29T04:48:23;8.83;;;6.13;;
14342;SDS011;7255;53.596;9.960;2023-03-29T04:50:50;8.97;;;6.47;;
14342;SDS011;7255;53.596;9.960;2023-03-29T04:53:18;8.00;;;6.70;;
14342;SDS011;7255;53.596;9.960;2023-03-29T04:55:45;9.00;;;7.03;;
14342;SDS011;7255;53.596;9.960;2023-03-29T04:58:11;8.93;;;7.70;;
14342;SDS011;7255;53.596;9.960;2023-03-29T05:00:38;9.47;;;8.50;;
14342;SDS011;7255;53.596;9.960;2023-03-29T05:03:06;11.27;;;8.67;;
14342;SDS011;7255;53.596;9.960;2023-03-29T05:05:35;11.17;;;8.77;;
14342;SDS011;7255;53.596;9.960;2023-03-29T05:08:02;11.97;;;9.53;;
14342;SDS011;7255;53.596;9.960;2023-03-29T05:10:28;10.67;;;9.47;;
14342;SDS011;7255;53.596;9.960;2023-03-29T05:12:55;13.20;;;9.97;;
14342;SDS011;7255;53.596;9.960;2023-03-29T05:15:22;16.93;;;10.00;;
14342;SDS011;7255;53.596;9.960;2023-03-29T05:17:48;14.27;;;10.57;;
14342;SDS011;7255;53.596;9.960;2023-03-29T05:20:16;13.23;;;9.80;;
14342;SDS011;7255;53.596;9.960;2023-03-29T05:22:42;15.90;;;10.40;;
14342;SDS011;7255;53.596;9.960;2023-03-29T05:25:09;15.00;;;10.43;;
14342;SDS011;7255;53.596;9.960;2023-03-29T05:27:37;14.10;;;12.23;;
14342;SDS011;7255;53.596;9.960;2023-03-29T05:30:04;13.27;;;10.50;;
14342;SDS011;7255;53.596;9.960;2023-03-29T05:32:34;16.80;;;10.87;;
14342;SDS011;7255;53.596;9.960;2023-03-29T05:35:01;13.77;;;10.60;;
14342;SDS011;7255;53.596;9.960;2023-03-29T05:37:28;15.23;;;10.70;;
14342;SDS011;7255;53.596;9.960;2023-03-29T05:39:57;13.40;;;10.27;;
14342;SDS011;7255;53.596;9.960;2023-03-29T05:42:23;12.30;;;10.20;;
14342;SDS011;7255;53.596;9.960;2023-03-29T05:44:50;12.87;;;10.37;;
14342;SDS011;7255;53.596;9.960;2023-03-29T05:47:16;12.60;;;10.50;;
14342;SDS011;7255;53.596;9.960;2023-03-29T05:49:42;15.07;;;10.47;;
14342;SDS011;7255;53.596;9.960;2023-03-29T05:52:10;14.93;;;10.80;;
14342;SDS011;7255;53.596;9.960;2023-03-29T05:54:38;12.43;;;9.93;;
14342;SDS011;7255;53.596;9.960;2023-03-29T05:57:05;13.43;;;10.27;;
14342;SDS011;7255;53.596;9.960;2023-03-29T05:59:32;13.00;;;10.70;;
14342;SDS011;7255;53.596;9.960;2023-03-29T06:01:58;13.47;;;9.80;;
14342;SDS011;7255;53.596;9.960;2023-03-29T06:04:27;12.73;;;10.87;;
14342;SDS011;7255;53.596;9.960;2023-03-29T06:06:54;12.13;;;10.33;;
14342;SDS011;7255;53.596;9.960;2023-03-29T06:09:21;11.90;;;9.70;;
14342;SDS011;7255;53.596;9.960;2023-03-29T06:11:49;13.10;;;9.17;;
14342;SDS011;7255;53.596;9.960;2023-03-29T06:14:16;12.93;;;8.87;;
14342;SDS011;7255;53.596;9.960;2023-03-29T06:16:43;13.90;;;9.80;;
14342;SDS011;7255;53.596;9.960;2023-03-29T06:19:10;18.53;;;9.53;;
14342;SDS011;7255;53.596;9.960;2023-03-29T06:21:36;12.53;;;9.37;;
14342;SDS011;7255;53.596;9.960;2023-03-29T06:24:03;13.33;;;8.80;;
14342;SDS011;7255;53.596;9.960;2023-03-29T06:26:30;9.93;;;8.90;;
14342;SDS011;7255;53.596;9.960;2023-03-29T06:28:58;14.27;;;9.00;;
14342;SDS011;7255;53.596;9.960;2023-03-29T06:31:24;12.47;;;9.53;;
14342;SDS011;7255;53.596;9.960;2023-03-29T06:33:51;11.80;;;9.90;;
14342;SDS011;7255;53.596;9.960;2023-03-29T06:36:17;10.37;;;8.67;;
14342;SDS011;7255;53.596;9.960;2023-03-29T06:38:44;14.23;;;9.10;;
14342;SDS011;7255;53.596;9.960;2023-03-29T06:41:11;9.93;;;8.50;;
14342;SDS011;7255;53.596;9.960;2023-03-29T06:43:37;12.37;;;8.93;;
14342;SDS011;7255;53.596;9.960;2023-03-29T06:46:05;12.33;;;8.07;;
14342;SDS011;7255;53.596;9.960;2023-03-29T06:48:35;11.27;;;8.17;;
14342;SDS011;7255;53.596;9.960;2023-03-29T06:51:01;11.77;;;8.87;;
14342;SDS011;7255;53.596;9.960;2023-03-29T06:53:28;11.87;;;8.83;;
14342;SDS011;7255;53.596;9.960;2023-03-29T06:55:54;10.80;;;7.90;;
14342;SDS011;7255;53.596;9.960;2023-03-29T06:58:21;8.63;;;7.27;;
14342;SDS011;7255;53.596;9.960;2023-03-29T07:00:47;10.73;;;7.57;;
14342;SDS011;7255;53.596;9.960;2023-03-29T07:03:15;8.60;;;7.60;;
14342;SDS011;7255;53.596;9.960;2023-03-29T07:05:47;13.33;;;8.00;;
14342;SDS011;7255;53.596;9.960;2023-03-29T07:08:15;12.13;;;8.40;;
14342;SDS011;7255;53.596;9.960;2023-03-29T07:10:45;9.23;;;7.70;;
14342;SDS011;7255;53.596;9.960;2023-03-29T07:13:13;9.30;;;7.43;;
14342;SDS011;7255;53.596;9.960;2023-03-29T07:15:40;8.83;;;7.37;;
14342;SDS011;7255;53.596;9.960;2023-03-29T07:18:09;9.50;;;7.13;;
14342;SDS011;7255;53.596;9.960;2023-03-29T07:20:37;9.43;;;6.20;;
14342;SDS011;7255;53.596;9.960;2023-03-29T07:23:04;7.80;;;6.43;;
14342;SDS011;7255;53.596;9.960;2023-03-29T07:25:32;8.13;;;6.30;;
14342;SDS011;7255;53.596;9.960;2023-03-29T07:27:58;7.53;;;6.13;;
14342;SDS011;7255;53.596;9.960;2023-03-29T07:30:26;8.83;;;6.10;;
14342;SDS011;7255;53.596;9.960;2023-03-29T07:32:54;7.03;;;6.20;;
14342;SDS011;7255;53.596;9.960;2023-03-29T07:35:22;7.17;;;5.87;;
14342;SDS011;7255;53.596;9.960;2023-03-29T07:37:52;10.40;;;6.28;;
14342;SDS011;7255;53.596;9.960;2023-03-29T07:40:19;10.07;;;5.77;;
14342;SDS011;7255;53.596;9.960;2023-03-29T07:42:47;9.03;;;5.93;;
14342;SDS011;7255;53.596;9.960;2023-03-29T07:45:16;7.50;;;5.70;;
14342;SDS011;7255;53.596;9.960;2023-03-29T07:47:44;5.75;;;4.90;;
14342;SDS011;7255;53.596;9.960;2023-03-29T07:50:11;9.50;;;5.93;;
14342;SDS011;7255;53.596;9.960;2023-03-29T07:52:38;6.63;;;4.60;;
14342;SDS011;7255;53.596;9.960;2023-03-29T07:55:07;6.82;;;5.20;;
14342;SDS011;7255;53.596;9.960;2023-03-29T07:57:34;7.35;;;5.68;;
14342;SDS011;7255;53.596;9.960;2023-03-29T08:00:01;9.23;;;5.67;;
14342;SDS011;7255;53.596;9.960;2023-03-29T08:02:36;5.30;;;4.87;;
14342;SDS011;7255;53.596;9.960;2023-03-29T08:05:03;7.87;;;5.73;;
14342;SDS011;7255;53.596;9.960;2023-03-29T08:07:30;6.35;;;5.25;;
14342;SDS011;7255;53.596;9.960;2023-03-29T08:09:57;8.57;;;5.03;;
14342;SDS011;7255;53.596;9.960;2023-03-29T08:12:24;5.18;;;4.43;;
14342;SDS011;7255;53.596;9.960;2023-03-29T08:14:51;8.13;;;5.40;;
14342;SDS011;7255;53.596;9.960;2023-03-29T08:17:17;6.55;;;5.32;;
14342;SDS011;7255;53.596;9.960;2023-03-29T08:19:43;7.93;;;4.65;;
14342;SDS011;7255;53.596;9.960;2023-03-29T08:22:10;7.05;;;5.07;;
14342;SDS011;7255;53.596;9.960;2023-03-29T08:24:36;5.20;;;4.70;;
14342;SDS011;7255;53.596;9.960;2023-03-29T08:27:03;7.53;;;5.18;;
14342;SDS011;7255;53.596;9.960;2023-03-29T08:29:30;6.40;;;5.37;;
14342;SDS011;7255;53.596;9.960;2023-03-29T08:31:57;9.75;;;5.37;;
14342;SDS011;7255;53.596;9.960;2023-03-29T08:34:23;5.43;;;4.75;;
14342;SDS011;7255;53.596;9.960;2023-03-29T08:36:49;6.30;;;4.87;;
14342;SDS011;7255;53.596;9.960;2023-03-29T08:39:16;5.35;;;4.75;;
14342;SDS011;7255;53.596;9.960;2023-03-29T08:41:45;6.20;;;4.80;;
14342;SDS011;7255;53.596;9.960;2023-03-29T08:44:23;7.12;;;5.53;;
14342;SDS011;7255;53.596;9.960;2023-03-29T08:47:08;6.12;;;4.72;;
14342;SDS011;7255;53.596;9.960;2023-03-29T08:49:40;7.62;;;4.80;;
14342;SDS011;7255;53.596;9.960;2023-03-29T08:52:13;6.53;;;4.72;;
14342;SDS011;7255;53.596;9.960;2023-03-29T08:54:46;6.25;;;4.62;;
14342;SDS011;7255;53.596;9.960;2023-03-29T08:57:16;5.68;;;4.87;;
14342;SDS011;7255;53.596;9.960;2023-03-29T08:59:48;5.30;;;4.28;;
14342;SDS011;7255;53.596;9.960;2023-03-29T09:02:20;6.68;;;4.97;;
14342;SDS011;7255;53.596;9.960;2023-03-29T09:04:49;7.28;;;4.53;;
14342;SDS011;7255;53.596;9.960;2023-03-29T09:07:17;5.22;;;4.25;;
14342;SDS011;7255;53.596;9.960;2023-03-29T09:09:43;5.55;;;4.93;;
14342;SDS011;7255;53.596;9.960;2023-03-29T09:12:12;6.35;;;4.90;;
14342;SDS011;7255;53.596;9.960;2023-03-29T09:14:50;5.78;;;4.47;;
14342;SDS011;7255;53.596;9.960;2023-03-29T09:17:28;6.05;;;4.93;;
14342;SDS011;7255;53.596;9.960;2023-03-29T09:20:03;6.62;;;4.65;;
14342;SDS011;7255;53.596;9.960;2023-03-29T09:22:45;8.68;;;4.80;;
14342;SDS011;7255;53.596;9.960;2023-03-29T09:25:23;4.82;;;4.37;;
14342;SDS011;7255;53.596;9.960;2023-03-29T09:27:55;5.65;;;4.75;;
14342;SDS011;7255;53.596;9.960;2023-03-29T09:30:30;7.25;;;5.20;;
14342;SDS011;7255;53.596;9.960;2023-03-29T09:33:08;6.65;;;4.57;;
14342;SDS011;7255;53.596;9.960;2023-03-29T09:35:39;6.65;;;5.20;;
14342;SDS011;7255;53.596;9.960;2023-03-29T09:38:10;6.75;;;4.78;;
14342;SDS011;7255;53.596;9.960;2023-03-29T09:40:40;5.25;;;4.75;;
14342;SDS011;7255;53.596;9.960;2023-03-29T09:43:10;5.30;;;4.25;;
14342;SDS011;7255;53.596;9.960;2023-03-29T09:45:40;5.10;;;4.60;;
14342;SDS011;7255;53.596;9.960;2023-03-29T09:48:09;5.18;;;4.68;;
14342;SDS011;7255;53.596;9.960;2023-03-29T09:50:39;8.43;;;5.53;;
14342;SDS011;7255;53.596;9.960;2023-03-29T09:53:07;6.30;;;4.78;;
14342;SDS011;7255;53.596;9.960;2023-03-29T09:55:34;6.70;;;4.78;;
14342;SDS011;7255;53.596;9.960;2023-03-29T09:58:06;5.12;;;4.62;;
14342;SDS011;7255;53.596;9.960;2023-03-29T10:00:40;7.20;;;4.85;;
14342;SDS011;7255;53.596;9.960;2023-03-29T10:03:06;5.40;;;4.90;;
14342;SDS011;7255;53.596;9.960;2023-03-29T10:05:34;6.20;;;4.90;;
14342;SDS011;7255;53.596;9.960;2023-03-29T10:08:01;6.28;;;4.80;;
14342;SDS011;7255;53.596;9.960;2023-03-29T10:10:39;7.55;;;4.47;;
14342;SDS011;7255;53.596;9.960;2023-03-29T10:13:10;6.82;;;4.70;;
14342;SDS011;7255;53.596;9.960;2023-03-29T10:15:41;7.87;;;4.62;;
14342;SDS011;7255;53.596;9.960;2023-03-29T10:18:10;6.18;;;4.60;;
14342;SDS011;7255;53.596;9.960;2023-03-29T10:20:38;5.20;;;4.60;;
14342;SDS011;7255;53.596;9.960;2023-03-29T10:23:06;5.97;;;4.85;;
14342;SDS011;7255;53.596;9.960;2023-03-29T10:25:36;6.12;;;5.18;;
14342;SDS011;7255;53.596;9.960;2023-03-29T10:28:05;12.37;;;5.35;;
14342;SDS011;7255;53.596;9.960;2023-03-29T10:30:33;6.82;;;5.12;;
14342;SDS011;7255;53.596;9.960;2023-03-29T10:33:03;5.47;;;4.97;;
14342;SDS011;7255;53.596;9.960;2023-03-29T10:35:32;6.70;;;5.60;;
14342;SDS011;7255;53.596;9.960;2023-03-29T10:38:05;9.23;;;5.62;;
14342;SDS011;7255;53.596;9.960;2023-03-29T10:40:39;6.47;;;5.15;;
14342;SDS011;7255;53.596;9.960;2023-03-29T10:43:10;6.40;;;5.00;;
14342;SDS011;7255;53.596;9.960;2023-03-29T10:45:39;6.47;;;5.72;;
14342;SDS011;7255;53.596;9.960;2023-03-29T10:48:09;5.72;;;4.72;;
14342;SDS011;7255;53.596;9.960;2023-03-29T10:50:37;9.52;;;5.45;;
14342;SDS011;7255;53.596;9.960;2023-03-29T10:53:04;6.45;;;5.85;;
14342;SDS011;7255;53.596;9.960;2023-03-29T10:55:40;7.37;;;5.47;;
14342;SDS011;7255;53.596;9.960;2023-03-29T10:58:15;7.35;;;5.20;;
14342;SDS011;7255;53.596;9.960;2023-03-29T11:00:54;6.10;;;5.18;;
14342;SDS011;7255;53.596;9.960;2023-03-29T11:03:27;7.20;;;5.43;;
14342;SDS011;7255;53.596;9.960;2023-03-29T11:06:05;7.68;;;5.55;;
14342;SDS011;7255;53.596;9.960;2023-03-29T11:08:50;6.50;;;5.87;;
14342;SDS011;7255;53.596;9.960;2023-03-29T11:11:26;6.47;;;5.00;;
14342;SDS011;7255;53.596;9.960;2023-03-29T11:14:06;7.18;;;5.18;;
14342;SDS011;7255;53.596;9.960;2023-03-29T11:16:40;8.80;;;5.70;;
14342;SDS011;7255;53.596;9.960;2023-03-29T11:19:17;7.93;;;6.00;;
14342;SDS011;7255;53.596;9.960;2023-03-29T11:21:54;10.68;;;6.22;;
14342;SDS011;7255;53.596;9.960;2023-03-29T11:24:36;8.93;;;5.70;;
14342;SDS011;7255;53.596;9.960;2023-03-29T11:27:17;7.40;;;6.00;;
14342;SDS011;7255;53.596;9.960;2023-03-29T11:29:54;8.95;;;6.50;;
14342;SDS011;7255;53.596;9.960;2023-03-29T11:32:31;8.02;;;6.43;;
14342;SDS011;7255;53.596;9.960;2023-03-29T11:35:09;9.05;;;5.95;;
14342;SDS011;7255;53.596;9.960;2023-03-29T11:37:49;7.00;;;6.22;;
14342;SDS011;7255;53.596;9.960;2023-03-29T11:40:27;8.23;;;5.72;;
14342;SDS011;7255;53.596;9.960;2023-03-29T11:43:04;8.93;;;6.03;;
14342;SDS011;7255;53.596;9.960;2023-03-29T11:45:37;8.93;;;6.37;;
14342;SDS011;7255;53.596;9.960;2023-03-29T11:48:09;10.38;;;5.82;;
14342;SDS011;7255;53.596;9.960;2023-03-29T11:50:43;7.80;;;6.40;;
14342;SDS011;7255;53.596;9.960;2023-03-29T11:53:16;9.18;;;6.37;;
14342;SDS011;7255;53.596;9.960;2023-03-29T11:55:48;8.75;;;6.97;;
14342;SDS011;7255;53.596;9.960;2023-03-29T11:58:17;9.65;;;6.68;;
14342;SDS011;7255;53.596;9.960;2023-03-29T12:00:47;8.00;;;7.12;;
14342;SDS011;7255;53.596;9.960;2023-03-29T12:03:20;7.35;;;6.53;;
14342;SDS011;7255;53.596;9.960;2023-03-29T12:05:58;8.57;;;6.87;;
14342;SDS011;7255;53.596;9.960;2023-03-29T12:08:29;10.23;;;7.72;;
14342;SDS011;7255;53.596;9.960;2023-03-29T12:11:01;7.82;;;7.03;;
14342;SDS011;7255;53.596;9.960;2023-03-29T12:13:32;10.00;;;6.32;;
14342;SDS011;7255;53.596;9.960;2023-03-29T12:16:04;8.13;;;7.15;;
14342;SDS011;7255;53.596;9.960;2023-03-29T12:18:38;8.80;;;6.90;;
14342;SDS011;7255;53.596;9.960;2023-03-29T12:21:10;8.85;;;7.82;;
14342;SDS011;7255;53.596;9.960;2023-03-29T12:23:39;10.50;;;7.57;;
14342;SDS011;7255;53.596;9.960;2023-03-29T12:26:08;8.70;;;7.43;;
14342;SDS011;7255;53.596;9.960;2023-03-29T12:28:51;7.18;;;6.47;;
14342;SDS011;7255;53.596;9.960;2023-03-29T12:31:32;9.73;;;7.25;;
14342;SDS011;7255;53.596;9.960;2023-03-29T12:37:25;8.05;;;7.25;;
14342;SDS011;7255;53.596;9.960;2023-03-29T12:40:08;10.90;;;7.53;;
14342;SDS011;7255;53.596;9.960;2023-03-29T12:42:44;10.65;;;7.70;;
14342;SDS011;7255;53.596;9.960;2023-03-29T12:45:13;8.43;;;7.53;;
14342;SDS011;7255;53.596;9.960;2023-03-29T12:47:44;8.48;;;7.57;;
14342;SDS011;7255;53.596;9.960;2023-03-29T12:50:23;8.35;;;7.32;;
14342;SDS011;7255;53.596;9.960;2023-03-29T12:52:56;9.05;;;7.62;;
14342;SDS011;7255;53.596;9.960;2023-03-29T12:55:30;7.97;;;7.18;;
14342;SDS011;7255;53.596;9.960;2023-03-29T12:58:03;8.52;;;7.22;;
14342;SDS011;7255;53.596;9.960;2023-03-29T13:00:33;7.28;;;6.47;;
14342;SDS011;7255;53.596;9.960;2023-03-29T13:03:19;8.93;;;7.57;;
14342;SDS011;7255;53.596;9.960;2023-03-29T13:05:51;8.30;;;7.43;;
14342;SDS011;7255;53.596;9.960;2023-03-29T13:08:27;7.43;;;6.72;;
14342;SDS011;7255;53.596;9.960;2023-03-29T13:11:00;7.18;;;6.47;;
14342;SDS011;7255;53.596;9.960;2023-03-29T13:13:27;7.87;;;7.10;;
14342;SDS011;7255;53.596;9.960;2023-03-29T13:16:07;7.70;;;6.95;;
14342;SDS011;7255;53.596;9.960;2023-03-29T13:18:39;7.75;;;6.95;;
14342;SDS011;7255;53.596;9.960;2023-03-29T13:21:16;7.62;;;6.93;;
14342;SDS011;7255;53.596;9.960;2023-03-29T13:23:52;10.90;;;6.85;;
14342;SDS011;7255;53.596;9.960;2023-03-29T13:26:32;8.73;;;6.12;;
14342;SDS011;7255;53.596;9.960;2023-03-29T13:29:21;9.93;;;7.28;;
14342;SDS011;7255;53.596;9.960;2023-03-29T13:32:00;7.70;;;6.90;;
14342;SDS011;7255;53.596;9.960;2023-03-29T13:34:38;7.07;;;6.47;;
14342;SDS011;7255;53.596;9.960;2023-03-29T13:37:15;7.70;;;7.00;;
14342;SDS011;7255;53.596;9.960;2023-03-29T13:39:54;7.93;;;7.05;;
14342;SDS011;7255;53.596;9.960;2023-03-29T13:42:23;7.80;;;6.55;;
14342;SDS011;7255;53.596;9.960;2023-03-29T13:44:51;7.18;;;6.37;;
14342;SDS011;7255;53.596;9.960;2023-03-29T13:47:35;7.82;;;6.68;;
14342;SDS011;7255;53.596;9.960;2023-03-29T13:50:09;7.47;;;6.55;;
14342;SDS011;7255;53.596;9.960;2023-03-29T13:52:42;7.65;;;6.47;;
14342;SDS011;7255;53.596;9.960;2023-03-29T13:55:18;7.80;;;6.65;;
14342;SDS011;7255;53.596;9.960;2023-03-29T13:57:50;7.53;;;6.87;;
14342;SDS011;7255;53.596;9.960;2023-03-29T14:00:21;7.55;;;6.78;;
14342;SDS011;7255;53.596;9.960;2023-03-29T14:02:53;7.78;;;6.72;;
14342;SDS011;7255;53.596;9.960;2023-03-29T14:05:22;7.70;;;7.00;;
14342;SDS011;7255;53.596;9.960;2023-03-29T14:07:53;8.13;;;7.32;;
14342;SDS011;7255;53.596;9.960;2023-03-29T14:10:22;7.12;;;6.35;;
14342;SDS011;7255;53.596;9.960;2023-03-29T14:12:52;7.93;;;6.53;;
14342;SDS011;7255;53.596;9.960;2023-03-29T14:15:21;8.60;;;7.78;;
14342;SDS011;7255;53.596;9.960;2023-03-29T14:17:56;6.97;;;6.37;;
14342;SDS011;7255;53.596;9.960;2023-03-29T14:20:23;7.03;;;6.43;;
14342;SDS011;7255;53.596;9.960;2023-03-29T14:22:49;7.43;;;6.62;;
14342;SDS011;7255;53.596;9.960;2023-03-29T14:25:17;7.60;;;6.90;;
14342;SDS011;7255;53.596;9.960;2023-03-29T14:27:47;7.35;;;6.75;;
14342;SDS011;7255;53.596;9.960;2023-03-29T14:30:18;8.20;;;7.18;;
14342;SDS011;7255;53.596;9.960;2023-03-29T14:32:46;8.40;;;6.78;;
14342;SDS011;7255;53.596;9.960;2023-03-29T14:35:13;7.28;;;6.57;;
14342;SDS011;7255;53.596;9.960;2023-03-29T14:37:40;10.32;;;6.62;;
14342;SDS011;7255;53.596;9.960;2023-03-29T14:40:11;7.70;;;6.55;;
14342;SDS011;7255;53.596;9.960;2023-03-29T14:42:42;8.68;;;7.07;;
14342;SDS011;7255;53.596;9.960;2023-03-29T14:45:12;7.18;;;6.57;;
14342;SDS011;7255;53.596;9.960;2023-03-29T14:47:41;7.70;;;7.00;;
14342;SDS011;7255;53.596;9.960;2023-03-29T14:50:09;7.78;;;7.07;;
14342;SDS011;7255;53.596;9.960;2023-03-29T14:52:42;8.52;;;7.70;;
14342;SDS011;7255;53.596;9.960;2023-03-29T14:55:10;9.05;;;8.05;;
14342;SDS011;7255;53.596;9.960;2023-03-29T14:57:38;8.32;;;7.53;;
14342;SDS011;7255;53.596;9.960;2023-03-29T15:00:14;8.50;;;7.60;;
14342;SDS011;7255;53.596;9.960;2023-03-29T15:02:48;8.45;;;7.37;;
14342;SDS011;7255;53.596;9.960;2023-03-29T15:05:21;10.00;;;8.60;;
14342;SDS011;7255;53.596;9.960;2023-03-29T15:07:49;10.02;;;8.45;;
14342;SDS011;7255;53.596;9.960;2023-03-29T15:10:19;8.90;;;8.10;;
14342;SDS011;7255;53.596;9.960;2023-03-29T15:12:46;10.48;;;8.77;;
14342;SDS011;7255;53.596;9.960;2023-03-29T15:15:15;8.85;;;7.93;;
14342;SDS011;7255;53.596;9.960;2023-03-29T15:17:42;9.73;;;8.73;;
14342;SDS011;7255;53.596;9.960;2023-03-29T15:20:11;9.30;;;8.50;;
14342;SDS011;7255;53.596;9.960;2023-03-29T15:22:50;9.32;;;8.48;;